Rechercher aéroport 
image banner adimage banner adimage banner ad
image banner ad

49CN - Rancho Tehama

Situé à Red Bluff, United States

ICAO - 49CN, IATA -

Données fournies par Airmate  

Information générale

Coordonnées: N40°0'58" W122°23'24"
Élévation : 550 feet MSL.
Variation magnétique : 17° East
Voir autres Aéroports à California

Données opérationnelles

Special qualification required
Heure actuelle UTC:
Heure actuelle locale:
Météo à : KRBL - Red Bluff Muni ( 19 km )
METAR: KRBL 231354Z AUTO 34009KT 10SM CLR 23/04 A2999 RMK AO2 SLP150 T02280039
TAF: KRBL 231120Z 2312/2412 34009KT P6SM SKC FM231700 35013G21KT P6SM SKC FM240200 33008KT P6SM FEW250
Voir NOTAMs / SUP AIP / TFR affectant cet aéroport [VIEW]
Fréquences de communication: [VIEW]

Pistes:

Identifiant RWYQFULongueur (ft)Largeur (ft)SurfaceLDA (ft)
09375040OTHER
27375040OTHER

Coordonnées de l'aéroport

Adresse: Red Bluff United States

Vue satellite de 49CN